Haddonfield, New Jersey
Current Conditions -  °F | °C
As of 2:54 PM on Thursday 23 Oct 2014 (Local Time) from KVAY Reporting Station
Light Rain Light Rain  
Wind Chill: 53°   Ceiling: 3500
Heat Index: 53°   Visibility: 10mi
Dew Point: 46°   Wind: 9mph
Humidity: 77%   Direction: 310°NW
Pressure: 29.75"   Gusts: 21mph
Location:  39.9°N, 75.03°W
Report Text: KVAY 231854Z AUTO 31008G18KT 10SM -RA FEW027 OVC035 12/08 A2975 RMK AO2 SLP073 P0001 T01170078
Loading
Personal Weather Stations






























Interactive Weather Map
Tropical Storm Tracking
New forecast layout! Learn more

10-Day Weather Forecast

Advertisements
Track Severe Weather on mobile